createdAt,value
2023-04-09T00:00:17.895Z,135.10
2023-04-09T00:02:45.270Z,138.30
2023-04-09T00:05:12.465Z,138.63
2023-04-09T00:07:39.784Z,135.27
2023-04-09T00:10:07.663Z,143.10
2023-04-09T00:12:34.812Z,149.13
2023-04-09T00:15:01.859Z,154.57
2023-04-09T00:17:28.870Z,148.40
2023-04-09T00:19:56.235Z,151.60
2023-04-09T00:22:23.358Z,145.90
2023-04-09T00:24:50.464Z,160.70
2023-04-09T00:27:17.567Z,153.40
2023-04-09T00:29:44.678Z,150.80
2023-04-09T00:32:11.759Z,144.77
2023-04-09T00:34:39.225Z,148.00
2023-04-09T00:37:06.541Z,147.90
2023-04-09T00:39:33.507Z,151.60
2023-04-09T00:42:04.831Z,148.70
2023-04-09T00:44:33.301Z,147.07
2023-04-09T00:47:01.275Z,148.20
2023-04-09T00:49:28.909Z,146.70
2023-04-09T00:51:56.137Z,146.13
2023-04-09T00:54:23.385Z,150.13
2023-04-09T00:56:51.028Z,157.27
2023-04-09T00:59:18.336Z,157.90
2023-04-09T01:01:45.468Z,159.97
2023-04-09T01:04:12.706Z,185.83
2023-04-09T01:06:44.523Z,180.07
2023-04-09T01:09:33.817Z,178.33
2023-04-09T01:12:14.772Z,169.90
2023-04-09T01:14:59.508Z,169.63
2023-04-09T01:17:41.674Z,173.83
2023-04-09T01:20:19.434Z,163.23
2023-04-09T01:23:06.360Z,164.80
2023-04-09T01:25:39.369Z,159.60
2023-04-09T01:28:39.504Z,165.80
2023-04-09T01:31:13.555Z,166.13
2023-04-09T01:33:41.816Z,167.70
2023-04-09T01:36:09.464Z,176.87
2023-04-09T01:38:39.726Z,171.73
2023-04-09T01:41:08.843Z,168.73
2023-04-09T01:43:37.437Z,159.47
2023-04-09T01:46:04.983Z,159.20
2023-04-09T01:48:32.994Z,164.43
2023-04-09T01:51:00.701Z,159.60
2023-04-09T01:53:31.308Z,163.40
2023-04-09T01:56:02.014Z,159.73
2023-04-09T01:58:29.160Z,157.13
2023-04-09T02:01:05.788Z,148.03
2023-04-09T02:03:46.644Z,161.33
2023-04-09T02:06:17.332Z,159.27
2023-04-09T02:08:47.862Z,153.80
2023-04-09T02:11:16.039Z,151.97
2023-04-09T02:13:44.296Z,156.20
2023-04-09T02:16:13.603Z,157.90
2023-04-09T02:18:40.956Z,152.40
2023-04-09T02:21:08.101Z,159.67
2023-04-09T02:23:35.137Z,155.83
2023-04-09T02:26:02.554Z,158.53
2023-04-09T02:28:29.568Z,154.20
2023-04-09T02:30:56.690Z,156.37
2023-04-09T02:33:23.875Z,157.50
2023-04-09T02:35:51.009Z,157.60
2023-04-09T02:38:19.825Z,154.27
2023-04-09T02:40:47.227Z,156.03
2023-04-09T02:43:14.415Z,158.70
2023-04-09T02:45:41.412Z,164.93
2023-04-09T02:48:08.673Z,163.50
2023-04-09T02:50:36.083Z,156.20
2023-04-09T02:53:03.917Z,158.23
2023-04-09T02:55:31.150Z,155.77
2023-04-09T02:57:58.256Z,154.87
2023-04-09T03:00:25.390Z,160.40
2023-04-09T03:02:53.080Z,154.43
2023-04-09T03:05:21.104Z,163.10
2023-04-09T03:07:48.178Z,158.00
2023-04-09T03:10:48.050Z,160.90
2023-04-09T03:13:15.492Z,156.90
2023-04-09T03:15:42.593Z,171.33
2023-04-09T03:18:10.044Z,162.70
2023-04-09T03:20:40.349Z,167.30
2023-04-09T03:23:11.236Z,168.47
2023-04-09T03:25:42.304Z,163.90
2023-04-09T03:28:15.518Z,169.97
2023-04-09T03:30:46.687Z,174.03
2023-04-09T03:33:15.043Z,176.83
2023-04-09T03:35:50.955Z,172.80
2023-04-09T03:38:24.556Z,180.73
2023-04-09T03:40:52.400Z,183.37
2023-04-09T03:43:19.579Z,184.83
2023-04-09T03:45:51.361Z,180.57
2023-04-09T03:48:23.152Z,179.70
2023-04-09T03:50:53.686Z,164.60
2023-04-09T03:53:29.566Z,180.20
2023-04-09T03:56:03.176Z,177.07
2023-04-09T03:58:31.333Z,187.80
2023-04-09T04:01:00.562Z,180.80
2023-04-09T04:03:39.043Z,186.37
2023-04-09T04:06:13.714Z,181.67
2023-04-09T04:08:48.143Z,177.10
2023-04-09T04:11:16.369Z,183.87
2023-04-09T04:13:43.630Z,176.07
2023-04-09T04:16:11.050Z,191.63
2023-04-09T04:18:40.320Z,218.83
2023-04-09T04:21:14.718Z,224.97
2023-04-09T04:23:45.891Z,220.97
2023-04-09T04:26:23.273Z,209.33
2023-04-09T04:28:51.533Z,200.43
2023-04-09T04:31:35.998Z,187.93
2023-04-09T04:34:03.368Z,189.87
2023-04-09T04:36:30.826Z,201.07
2023-04-09T04:38:57.894Z,190.07
2023-04-09T04:41:33.288Z,184.10
2023-04-09T04:44:26.464Z,185.50
2023-04-09T04:47:03.982Z,179.23
2023-04-09T04:49:31.793Z,184.80
2023-04-09T04:52:00.265Z,178.63
2023-04-09T04:54:27.845Z,173.47
2023-04-09T04:56:57.453Z,186.43
2023-04-09T04:59:50.977Z,173.20
2023-04-09T05:02:19.235Z,175.00
2023-04-09T05:04:55.391Z,175.93
2023-04-09T05:07:31.081Z,173.73
2023-04-09T05:09:58.781Z,171.20
2023-04-09T05:12:27.164Z,170.73
2023-04-09T05:14:54.157Z,183.23
2023-04-09T05:17:21.240Z,175.63
2023-04-09T05:19:52.941Z,180.50
2023-04-09T05:22:25.460Z,178.27
2023-04-09T05:24:52.708Z,176.17
2023-04-09T05:27:22.252Z,175.07
2023-04-09T05:29:51.243Z,178.80
2023-04-09T05:32:18.457Z,183.73
2023-04-09T05:34:45.529Z,171.97
2023-04-09T05:37:13.102Z,184.33
2023-04-09T05:39:41.900Z,178.50
2023-04-09T05:42:09.187Z,184.23
2023-04-09T05:44:59.567Z,174.53
2023-04-09T05:47:27.489Z,169.83
2023-04-09T05:50:06.066Z,162.50
2023-04-09T05:52:33.541Z,166.83
2023-04-09T05:55:01.069Z,174.23
2023-04-09T05:57:40.435Z,162.63
2023-04-09T06:00:08.462Z,152.77
2023-04-09T06:02:45.660Z,158.40
2023-04-09T06:05:13.062Z,159.57
2023-04-09T06:07:40.100Z,152.07
2023-04-09T06:10:08.020Z,145.93
2023-04-09T06:12:37.901Z,136.43
2023-04-09T06:15:05.987Z,141.77
2023-04-09T06:17:33.531Z,130.33
2023-04-09T06:20:00.591Z,129.70
2023-04-09T06:22:27.684Z,124.90
2023-04-09T06:24:54.685Z,125.60
2023-04-09T06:27:22.953Z,122.97
2023-04-09T06:29:50.073Z,118.93
2023-04-09T06:32:17.219Z,113.05
2023-04-09T06:34:44.317Z,122.50
2023-04-09T06:37:11.349Z,113.15
2023-04-09T06:39:40.358Z,113.60
2023-04-09T06:42:09.626Z,110.15
2023-04-09T06:44:50.647Z,114.68
2023-04-09T06:47:17.728Z,111.15
2023-04-09T06:49:44.829Z,104.82
2023-04-09T06:52:12.171Z,108.55
2023-04-09T06:54:39.187Z,108.28
2023-04-09T06:57:07.379Z,105.95
2023-04-09T06:59:34.465Z,117.97
2023-04-09T07:02:01.614Z,117.32
2023-04-09T07:04:28.749Z,111.43
2023-04-09T07:06:56.958Z,118.15
2023-04-09T07:09:24.304Z,117.45
2023-04-09T07:11:51.615Z,105.53
2023-04-09T07:14:18.637Z,108.00
2023-04-09T07:16:46.636Z,107.32
2023-04-09T07:19:13.710Z,109.15
2023-04-09T07:21:41.016Z,107.05
2023-04-09T07:24:08.246Z,103.88
2023-04-09T07:26:35.318Z,88.88
2023-04-09T07:29:03.854Z,93.47
2023-04-09T07:31:32.380Z,81.32
2023-04-09T07:34:01.046Z,86.88
2023-04-09T07:36:29.026Z,78.55
2023-04-09T07:38:56.203Z,74.28
2023-04-09T07:41:23.443Z,66.80
2023-04-09T07:43:50.378Z,62.80
2023-04-09T07:46:22.034Z,55.60
2023-04-09T07:48:50.398Z,49.45
2023-04-09T07:51:18.155Z,56.42
2023-04-09T07:53:45.251Z,56.47
2023-04-09T07:56:12.403Z,59.05
2023-04-09T07:58:39.513Z,54.55
2023-04-09T08:01:06.613Z,52.90
2023-04-09T08:03:33.918Z,54.63
2023-04-09T08:06:01.414Z,51.40
2023-04-09T08:08:28.548Z,49.67
2023-04-09T08:10:55.681Z,48.60
2023-04-09T08:13:25.573Z,52.22
2023-04-09T08:15:53.151Z,49.20
2023-04-09T08:18:20.230Z,47.88
2023-04-09T08:20:47.327Z,46.55
2023-04-09T08:23:14.438Z,44.85
2023-04-09T08:25:41.740Z,46.13
2023-04-09T08:28:09.116Z,47.28
2023-04-09T08:30:36.384Z,48.70
2023-04-09T08:33:03.661Z,49.13
2023-04-09T08:35:31.506Z,48.08
2023-04-09T08:37:59.988Z,48.53
2023-04-09T08:40:27.097Z,49.00
2023-04-09T08:42:56.996Z,46.13
2023-04-09T08:45:24.464Z,49.75
2023-04-09T08:47:52.237Z,46.45
2023-04-09T08:50:20.275Z,46.55
2023-04-09T08:52:49.137Z,42.60
2023-04-09T08:55:16.295Z,39.60
2023-04-09T08:57:43.734Z,41.63
2023-04-09T09:00:11.515Z,41.22
2023-04-09T09:02:39.947Z,41.05
2023-04-09T09:05:07.457Z,42.85
2023-04-09T09:07:34.667Z,42.72
2023-04-09T09:10:04.602Z,59.22
2023-04-09T09:12:42.029Z,41.42
2023-04-09T09:15:31.643Z,40.30
2023-04-09T09:18:00.834Z,37.92
2023-04-09T09:20:28.068Z,39.20
2023-04-09T09:22:56.723Z,33.58
2023-04-09T09:25:25.893Z,34.70
2023-04-09T09:27:54.307Z,38.42
2023-04-09T09:30:26.659Z,39.70
2023-04-09T09:32:55.324Z,36.58
2023-04-09T09:35:23.541Z,35.25
2023-04-09T09:38:06.568Z,36.90
2023-04-09T09:40:33.661Z,37.47
2023-04-09T09:43:00.820Z,36.65
2023-04-09T09:45:29.237Z,38.28
2023-04-09T09:47:57.175Z,42.00
2023-04-09T09:50:26.005Z,40.33
2023-04-09T09:53:01.459Z,50.75
2023-04-09T09:55:32.351Z,31.02
2023-04-09T09:58:06.536Z,26.98
2023-04-09T10:00:35.755Z,26.20
2023-04-09T10:03:13.469Z,34.72
2023-04-09T10:05:42.242Z,30.17
2023-04-09T10:08:11.342Z,30.15
2023-04-09T10:10:42.487Z,29.33
2023-04-09T10:13:37.674Z,32.60
2023-04-09T10:16:06.279Z,34.47
2023-04-09T10:18:34.734Z,34.40
2023-04-09T10:21:44.123Z,36.45
2023-04-09T10:24:11.931Z,34.40
2023-04-09T10:26:44.411Z,34.38
2023-04-09T10:29:14.712Z,30.83
2023-04-09T10:32:07.269Z,32.83
2023-04-09T10:34:40.684Z,33.65
2023-04-09T10:37:10.149Z,32.28
2023-04-09T10:39:43.950Z,32.25
2023-04-09T10:42:25.081Z,30.85
2023-04-09T10:45:07.503Z,30.08
2023-04-09T10:47:37.412Z,49.42
2023-04-09T10:50:27.005Z,37.20
2023-04-09T10:52:57.441Z,31.05
2023-04-09T10:55:48.144Z,35.55
2023-04-09T10:58:15.497Z,35.80
2023-04-09T11:00:47.445Z,32.58
2023-04-09T11:03:33.208Z,34.13
2023-04-09T11:06:09.463Z,36.30
2023-04-09T11:08:38.445Z,32.08
2023-04-09T11:11:05.995Z,32.05
2023-04-09T11:13:34.633Z,34.35
2023-04-09T11:16:06.859Z,33.63
2023-04-09T11:18:35.606Z,32.42
2023-04-09T11:21:04.410Z,32.38
2023-04-09T11:23:33.554Z,33.20
2023-04-09T11:26:01.958Z,32.22
2023-04-09T11:28:29.104Z,33.35
2023-04-09T11:30:56.153Z,33.85
2023-04-09T11:33:23.232Z,31.40
2023-04-09T11:35:51.542Z,29.98
2023-04-09T11:38:18.679Z,28.08
2023-04-09T11:40:48.850Z,29.30
2023-04-09T11:43:16.949Z,48.88
2023-04-09T11:45:45.016Z,35.15
2023-04-09T11:48:13.097Z,28.83
2023-04-09T11:50:40.741Z,29.35
2023-04-09T11:53:21.231Z,30.25
2023-04-09T11:55:51.510Z,28.63
2023-04-09T11:58:19.143Z,30.83
2023-04-09T12:00:46.555Z,31.52
2023-04-09T12:03:16.190Z,26.38
2023-04-09T12:05:51.208Z,27.50
2023-04-09T12:08:24.295Z,28.65
2023-04-09T12:10:54.699Z,26.60
2023-04-09T12:13:22.341Z,23.60
2023-04-09T12:15:50.198Z,24.00
2023-04-09T12:18:17.535Z,23.85
2023-04-09T12:20:47.496Z,24.08
2023-04-09T12:23:14.765Z,26.83
2023-04-09T12:25:45.638Z,24.33
2023-04-09T12:28:15.852Z,24.17
2023-04-09T12:30:43.339Z,24.13
2023-04-09T12:33:11.503Z,25.85
2023-04-09T12:35:39.031Z,24.70
2023-04-09T12:38:06.316Z,28.52
2023-04-09T12:40:34.183Z,24.42
2023-04-09T12:43:01.618Z,27.10
2023-04-09T12:45:33.753Z,27.48
2023-04-09T12:48:02.332Z,25.30
2023-04-09T12:50:29.507Z,25.85
2023-04-09T12:52:56.745Z,23.40
2023-04-09T12:55:23.794Z,24.30
2023-04-09T12:57:51.967Z,23.73
2023-04-09T13:00:19.246Z,23.50
2023-04-09T13:02:46.626Z,22.95
2023-04-09T13:05:13.962Z,26.50
2023-04-09T13:07:42.981Z,25.00
2023-04-09T13:10:10.822Z,28.13
2023-04-09T13:12:38.348Z,26.05
2023-04-09T13:15:06.224Z,23.52
2023-04-09T13:17:33.555Z,26.83
2023-04-09T13:20:01.410Z,26.83
2023-04-09T13:22:28.684Z,25.45
2023-04-09T13:24:55.792Z,26.30
2023-04-09T13:27:22.834Z,25.35
2023-04-09T13:29:49.828Z,23.08
2023-04-09T13:32:18.392Z,25.10
2023-04-09T13:34:45.436Z,24.23
2023-04-09T13:37:12.733Z,27.95
2023-04-09T13:39:39.750Z,25.83
2023-04-09T13:42:13.752Z,25.63
2023-04-09T13:44:44.762Z,26.83
2023-04-09T13:47:13.461Z,25.40
2023-04-09T13:49:41.432Z,21.83
2023-04-09T13:52:08.955Z,22.10
2023-04-09T13:54:36.585Z,22.63
2023-04-09T13:57:04.293Z,19.83
2023-04-09T13:59:31.503Z,21.55
2023-04-09T14:01:58.862Z,23.00
2023-04-09T14:04:26.235Z,23.27
2023-04-09T14:06:53.381Z,23.33
2023-04-09T14:09:20.489Z,23.40
2023-04-09T14:11:47.627Z,24.40
2023-04-09T14:14:14.813Z,21.58
2023-04-09T14:16:41.820Z,23.08
2023-04-09T14:19:10.189Z,23.30
2023-04-09T14:21:37.317Z,23.33
2023-04-09T14:24:04.520Z,21.35
2023-04-09T14:26:31.653Z,23.58
2023-04-09T14:28:58.929Z,24.02
2023-04-09T14:31:26.305Z,21.92
2023-04-09T14:33:53.641Z,22.50
2023-04-09T14:36:21.465Z,23.15
2023-04-09T14:38:49.250Z,22.83
2023-04-09T14:41:16.968Z,21.73
2023-04-09T14:43:44.080Z,19.70
2023-04-09T14:46:14.226Z,21.40
2023-04-09T14:48:41.436Z,22.73
2023-04-09T14:51:11.996Z,27.27
2023-04-09T14:53:39.500Z,22.15
2023-04-09T14:56:06.925Z,21.35
2023-04-09T14:58:34.214Z,20.77
2023-04-09T15:01:01.346Z,21.40
2023-04-09T15:03:28.939Z,24.73
2023-04-09T15:05:56.989Z,20.58
2023-04-09T15:08:24.037Z,23.05
2023-04-09T15:10:51.394Z,22.13
2023-04-09T15:13:18.433Z,19.00
2023-04-09T15:15:45.617Z,21.75
2023-04-09T15:18:12.848Z,83.68
2023-04-09T15:20:40.548Z,24.52
2023-04-09T15:23:07.623Z,21.60
2023-04-09T15:25:34.858Z,22.92
2023-04-09T15:28:02.670Z,22.63
2023-04-09T15:30:29.847Z,22.80
2023-04-09T15:32:57.160Z,21.88
2023-04-09T15:35:25.312Z,21.50
2023-04-09T15:37:52.830Z,21.83
2023-04-09T15:40:20.517Z,24.15
2023-04-09T15:42:47.557Z,22.65
2023-04-09T15:45:17.878Z,23.85
2023-04-09T15:47:46.169Z,24.58
2023-04-09T15:50:13.926Z,25.10
2023-04-09T15:52:41.288Z,22.90
2023-04-09T15:55:09.173Z,23.13
2023-04-09T15:57:36.646Z,24.77
2023-04-09T16:00:04.066Z,24.02
2023-04-09T16:02:31.664Z,23.50
2023-04-09T16:04:58.745Z,24.60
2023-04-09T16:07:25.834Z,23.15
2023-04-09T16:09:53.067Z,23.73
2023-04-09T16:12:20.122Z,26.40
2023-04-09T16:14:47.084Z,26.95
2023-04-09T16:17:14.260Z,23.08
2023-04-09T16:19:42.926Z,26.27
2023-04-09T16:22:10.419Z,91.05
2023-04-09T16:24:37.539Z,40.40
2023-04-09T16:27:04.701Z,30.52
2023-04-09T16:29:31.851Z,25.88
2023-04-09T16:31:58.968Z,25.60
2023-04-09T16:34:26.266Z,28.30
2023-04-09T16:36:53.420Z,26.58
2023-04-09T16:39:20.500Z,26.85
2023-04-09T16:41:47.570Z,27.73
2023-04-09T16:44:14.675Z,26.95
2023-04-09T16:46:42.951Z,26.15
2023-04-09T16:49:10.349Z,26.52
2023-04-09T16:51:38.438Z,30.55
2023-04-09T16:54:05.621Z,29.20
2023-04-09T16:56:32.959Z,28.98
2023-04-09T16:59:00.344Z,30.05
2023-04-09T17:01:27.977Z,30.33
2023-04-09T17:03:56.495Z,32.28
2023-04-09T17:06:23.618Z,33.72
2023-04-09T17:08:51.033Z,31.83
2023-04-09T17:11:18.756Z,32.58
2023-04-09T17:13:45.840Z,34.95
2023-04-09T17:16:14.349Z,30.02
2023-04-09T17:18:41.558Z,34.00
2023-04-09T17:21:08.602Z,32.03
2023-04-09T17:23:37.149Z,33.42
2023-04-09T17:26:06.883Z,35.20
2023-04-09T17:28:34.182Z,38.45
2023-04-09T17:31:01.714Z,37.03
2023-04-09T17:33:28.877Z,33.50
2023-04-09T17:35:57.749Z,35.15
2023-04-09T17:38:27.001Z,33.35
2023-04-09T17:40:54.362Z,35.92
2023-04-09T17:43:21.433Z,34.15
2023-04-09T17:45:49.315Z,33.85
2023-04-09T17:48:16.672Z,33.60
2023-04-09T17:50:43.860Z,35.03
2023-04-09T17:53:11.642Z,33.75
2023-04-09T17:55:38.864Z,35.35
2023-04-09T17:58:05.869Z,35.10
2023-04-09T18:00:34.406Z,35.42
2023-04-09T18:03:01.924Z,33.00
2023-04-09T18:05:29.704Z,35.60
2023-04-09T18:07:57.326Z,32.13
2023-04-09T18:10:24.474Z,34.63
2023-04-09T18:12:52.003Z,34.33
2023-04-09T18:15:19.376Z,33.72
2023-04-09T18:17:46.547Z,35.65
2023-04-09T18:20:15.421Z,33.13
2023-04-09T18:22:43.241Z,80.25
2023-04-09T18:25:10.584Z,62.35
2023-04-09T18:27:37.777Z,52.40
2023-04-09T18:30:05.425Z,38.08
2023-04-09T18:32:32.669Z,33.25
2023-04-09T18:34:59.725Z,34.42
2023-04-09T18:37:27.186Z,35.15
2023-04-09T18:39:54.356Z,34.80
2023-04-09T18:42:21.458Z,37.80
2023-04-09T18:44:48.860Z,34.17
2023-04-09T18:47:16.004Z,33.95
2023-04-09T18:49:42.967Z,35.35
2023-04-09T18:52:10.491Z,34.35
2023-04-09T18:54:38.913Z,33.97
2023-04-09T18:57:06.183Z,34.30
2023-04-09T18:59:35.022Z,34.28
2023-04-09T19:02:06.047Z,33.13
2023-04-09T19:04:40.167Z,35.45
2023-04-09T19:07:07.716Z,35.92
2023-04-09T19:09:34.948Z,35.95
2023-04-09T19:12:02.238Z,39.03
2023-04-09T19:14:29.556Z,35.67
2023-04-09T19:16:57.222Z,39.17
2023-04-09T19:19:24.356Z,35.42
2023-04-09T19:21:52.020Z,34.75
2023-04-09T19:24:19.110Z,34.72
2023-04-09T19:26:46.163Z,37.75
2023-04-09T19:29:13.158Z,38.13
2023-04-09T19:31:41.564Z,42.80
2023-04-09T19:34:10.785Z,40.70
2023-04-09T19:36:38.030Z,40.88
2023-04-09T19:39:05.969Z,45.35
2023-04-09T19:41:33.203Z,38.45
2023-04-09T19:44:01.645Z,41.50
2023-04-09T19:46:28.621Z,37.20
2023-04-09T19:48:56.698Z,36.97
2023-04-09T19:51:23.704Z,39.30
2023-04-09T19:53:50.751Z,36.53
2023-04-09T19:56:18.317Z,37.88
2023-04-09T19:58:45.642Z,35.90
2023-04-09T20:01:12.732Z,37.15
2023-04-09T20:03:39.874Z,35.85
2023-04-09T20:06:11.021Z,35.05
2023-04-09T20:08:38.317Z,36.78
2023-04-09T20:11:06.990Z,36.42
2023-04-09T20:13:34.243Z,37.95
2023-04-09T20:16:01.764Z,35.60
2023-04-09T20:18:28.982Z,41.53
2023-04-09T20:20:56.068Z,42.80
2023-04-09T20:23:23.192Z,45.38
2023-04-09T20:25:57.040Z,45.47
2023-04-09T20:28:24.196Z,50.63
2023-04-09T20:30:51.201Z,52.88
2023-04-09T20:33:18.591Z,51.53
2023-04-09T20:35:45.810Z,50.63
2023-04-09T20:38:12.896Z,49.88
2023-04-09T20:40:40.018Z,48.80
2023-04-09T20:43:07.075Z,47.95
2023-04-09T20:45:34.307Z,51.80
2023-04-09T20:48:01.677Z,50.05
2023-04-09T20:50:29.369Z,54.28
2023-04-09T20:52:58.597Z,48.92
2023-04-09T20:55:26.377Z,46.15
2023-04-09T20:57:56.472Z,52.80
2023-04-09T21:00:23.865Z,50.50
2023-04-09T21:02:51.553Z,49.00
2023-04-09T21:05:23.990Z,51.40
2023-04-09T21:07:52.987Z,52.92
2023-04-09T21:10:20.506Z,51.58
2023-04-09T21:12:50.410Z,53.15
2023-04-09T21:15:17.692Z,55.35
2023-04-09T21:17:44.788Z,53.33
2023-04-09T21:20:12.460Z,52.80
2023-04-09T21:22:39.594Z,51.85
2023-04-09T21:25:07.070Z,53.85
2023-04-09T21:27:34.176Z,56.95
2023-04-09T21:30:01.686Z,56.72
2023-04-09T21:32:28.866Z,55.83
2023-04-09T21:34:56.101Z,62.95
2023-04-09T21:37:24.474Z,59.40
2023-04-09T21:39:51.589Z,68.55
2023-04-09T21:42:18.587Z,68.18
2023-04-09T21:44:45.720Z,68.25
2023-04-09T21:47:13.193Z,78.18
2023-04-09T21:49:40.742Z,76.90
2023-04-09T21:52:14.451Z,78.50
2023-04-09T21:54:43.530Z,80.43
2023-04-09T21:57:11.429Z,86.68
2023-04-09T21:59:38.689Z,92.72
2023-04-09T22:02:06.091Z,93.47
2023-04-09T22:04:37.230Z,94.72
2023-04-09T22:07:04.742Z,91.57
2023-04-09T22:09:32.078Z,95.68
2023-04-09T22:11:59.752Z,92.18
2023-04-09T22:14:29.550Z,96.07
2023-04-09T22:16:58.144Z,96.35
2023-04-09T22:19:26.266Z,100.10
2023-04-09T22:22:00.380Z,108.35
2023-04-09T22:24:31.181Z,97.60
2023-04-09T22:26:59.162Z,100.57
2023-04-09T22:29:27.006Z,104.15
2023-04-09T22:31:58.099Z,105.88
2023-04-09T22:34:25.496Z,106.28
2023-04-09T22:36:52.546Z,108.47
2023-04-09T22:39:19.536Z,105.43
2023-04-09T22:41:47.029Z,106.00
2023-04-09T22:44:13.987Z,108.88
2023-04-09T22:46:41.596Z,115.25
2023-04-09T22:49:09.131Z,109.93
2023-04-09T22:51:36.552Z,117.07
2023-04-09T22:54:03.758Z,117.22
2023-04-09T22:56:33.712Z,116.55
2023-04-09T22:59:00.965Z,112.00
2023-04-09T23:01:28.226Z,109.38
2023-04-09T23:03:56.029Z,110.87
2023-04-09T23:06:25.121Z,114.22
2023-04-09T23:08:52.272Z,109.53
2023-04-09T23:11:19.697Z,111.40
2023-04-09T23:13:46.739Z,107.80
2023-04-09T23:16:14.050Z,117.88
2023-04-09T23:18:41.268Z,114.70
2023-04-09T23:21:09.635Z,125.10
2023-04-09T23:23:38.247Z,136.82
2023-04-09T23:26:06.105Z,112.22
2023-04-09T23:28:33.372Z,109.70
2023-04-09T23:31:00.657Z,110.43
2023-04-09T23:33:27.894Z,106.93
2023-04-09T23:35:55.282Z,108.53
2023-04-09T23:38:22.549Z,112.23
2023-04-09T23:40:49.935Z,118.20
2023-04-09T23:43:17.304Z,111.75
2023-04-09T23:45:44.734Z,117.50
2023-04-09T23:48:12.607Z,118.63
2023-04-09T23:50:41.024Z,118.73
2023-04-09T23:53:08.901Z,120.57
2023-04-09T23:55:41.103Z,110.97
2023-04-09T23:58:08.664Z,147.47
